createdAt,value
2022-08-02T00:04:21.652Z,0
2022-08-02T00:09:23.693Z,0
2022-08-02T00:14:19.558Z,0
2022-08-02T00:19:17.125Z,0
2022-08-02T00:24:32.994Z,0
2022-08-02T00:29:15.259Z,0
2022-08-02T00:34:39.169Z,0
2022-08-02T00:39:37.949Z,0
2022-08-02T00:44:15.311Z,0
2022-08-02T00:49:22.659Z,0
2022-08-02T00:54:12.511Z,0
2022-08-02T00:58:40.570Z,0
2022-08-02T01:03:37.436Z,0
2022-08-02T01:08:36.529Z,0
2022-08-02T01:13:36.315Z,0
2022-08-02T01:18:35.208Z,0
2022-08-02T01:23:34.602Z,0
2022-08-02T01:28:34.116Z,0
2022-08-02T01:33:34.377Z,0
2022-08-02T01:38:33.385Z,0
2022-08-02T01:43:33.414Z,0
2022-08-02T01:48:30.088Z,0
2022-08-02T01:53:29.490Z,0
2022-08-02T01:58:17.893Z,0
2022-08-02T02:03:17.309Z,0
2022-08-02T02:08:29.837Z,0
2022-08-02T02:13:19.422Z,0
2022-08-02T02:18:16.404Z,0
2022-08-02T02:23:19.223Z,0
2022-08-02T02:28:13.186Z,0
2022-08-02T02:33:12.877Z,0
2022-08-02T02:38:11.933Z,0
2022-08-02T02:43:11.823Z,0
2022-08-02T02:48:11.081Z,0
2022-08-02T02:53:10.311Z,0
2022-08-02T02:58:10.536Z,0
2022-08-02T02:59:32.867Z,0
2022-08-02T03:04:59.960Z,0
2022-08-02T03:09:29.214Z,0
2022-08-02T03:14:28.665Z,0
2022-08-02T03:19:35.602Z,0
2022-08-02T03:24:30.970Z,0
2022-08-02T03:29:29.492Z,0
2022-08-02T03:34:26.787Z,0
2022-08-02T03:39:26.430Z,0
2022-08-02T03:44:25.742Z,0
2022-08-02T03:49:25.307Z,0
2022-08-02T03:54:46.085Z,0
2022-08-02T03:59:16.422Z,0
2022-08-02T04:04:16.015Z,0
2022-08-02T04:09:15.285Z,0
2022-08-02T04:14:15.206Z,0
2022-08-02T04:19:18.056Z,0
2022-08-02T04:24:25.086Z,0
2022-08-02T04:29:13.154Z,0
2022-08-02T04:34:17.053Z,0.01
2022-08-02T04:39:11.079Z,0.01
2022-08-02T04:44:09.900Z,0.01
2022-08-02T04:49:16.786Z,0.02
2022-08-02T04:54:30.347Z,0.02
2022-08-02T04:58:56.483Z,0.02
2022-08-02T05:03:56.996Z,0.03
2022-08-02T05:08:56.088Z,0.03
2022-08-02T05:14:02.068Z,0.04
2022-08-02T05:18:54.090Z,0.04
2022-08-02T05:23:54.120Z,0.05
2022-08-02T05:28:53.211Z,0.05
2022-08-02T05:33:53.506Z,0.06
2022-08-02T05:38:53.091Z,0.07
2022-08-02T05:43:50.039Z,0.07
2022-08-02T05:48:48.502Z,0.07
2022-08-02T05:53:49.561Z,0.07
2022-08-02T05:58:46.895Z,0.08
2022-08-02T06:00:16.196Z,0.08
2022-08-02T06:05:15.529Z,0.09
2022-08-02T06:10:15.675Z,0.09
2022-08-02T06:15:16.169Z,0.1
2022-08-02T06:20:13.758Z,0.1
2022-08-02T06:25:53.474Z,0.11
2022-08-02T06:30:12.788Z,0.12
2022-08-02T06:35:15.958Z,0.12
2022-08-02T06:40:12.460Z,0.13
2022-08-02T06:45:12.017Z,0.14
2022-08-02T06:55:02.525Z,0.15
2022-08-02T06:59:22.308Z,0.15
2022-08-02T07:04:22.803Z,0.16
2022-08-02T07:09:24.299Z,0.17
2022-08-02T07:14:20.784Z,0.18
2022-08-02T07:19:19.712Z,0.27
2022-08-02T07:24:19.053Z,0.29
2022-08-02T07:29:19.469Z,0.32
2022-08-02T07:34:16.159Z,0.33
2022-08-02T07:39:18.057Z,0.36
2022-08-02T07:44:15.155Z,0.36
2022-08-02T07:49:15.601Z,0.35
2022-08-02T07:54:19.641Z,0.38
2022-08-02T07:59:03.116Z,0.42
2022-08-02T08:04:05.202Z,0.44
2022-08-02T08:09:02.983Z,0.45
2022-08-02T08:14:02.970Z,0.46
2022-08-02T08:18:59.702Z,0.48
2022-08-02T08:23:59.584Z,0.51
2022-08-02T08:28:58.982Z,0.54
2022-08-02T08:33:58.798Z,0.56
2022-08-02T08:38:58.233Z,0.55
2022-08-02T08:43:58.336Z,0.59
2022-08-02T08:48:58.064Z,0.62
2022-08-02T08:53:57.514Z,0.62
2022-08-02T08:58:55.336Z,0.63
2022-08-02T09:03:55.049Z,0.65
2022-08-02T09:08:55.003Z,0.67
2022-08-02T09:13:53.684Z,0.67
2022-08-02T09:18:53.463Z,0.69
2022-08-02T09:23:53.374Z,0.72
2022-08-02T09:28:51.888Z,0.75
2022-08-02T09:33:51.427Z,0.75
2022-08-02T09:38:49.865Z,0.78
2022-08-02T09:44:14.083Z,0.79
2022-08-02T09:48:55.657Z,0.8
2022-08-02T09:53:47.734Z,0.81
2022-08-02T09:58:47.120Z,0.84
2022-08-02T10:03:51.393Z,0.84
2022-08-02T10:08:46.808Z,0.88
2022-08-02T10:13:45.814Z,0.9
2022-08-02T10:18:44.777Z,0.89
2022-08-02T10:23:44.172Z,0.91
2022-08-02T10:28:42.660Z,0.89
2022-08-02T10:33:42.583Z,0.93
2022-08-02T10:38:41.712Z,0.94
2022-08-02T10:43:42.253Z,0.93
2022-08-02T10:48:41.217Z,0.94
2022-08-02T10:53:41.615Z,0.94
2022-08-02T10:58:40.111Z,0.89
2022-08-02T11:00:04.194Z,0.96
2022-08-02T11:05:00.514Z,0.95
2022-08-02T11:09:59.350Z,0.93
2022-08-02T11:14:58.882Z,0.94
2022-08-02T11:20:00.481Z,0.64
2022-08-02T11:24:58.196Z,0.99
2022-08-02T11:29:57.725Z,0.42
2022-08-02T11:34:56.867Z,0.39
2022-08-02T11:39:56.042Z,0.43
2022-08-02T11:44:56.143Z,0.96
2022-08-02T11:49:53.276Z,0.97
2022-08-02T11:54:52.857Z,0.96
2022-08-02T11:59:18.099Z,0.96
2022-08-02T12:04:22.641Z,0.94
2022-08-02T12:09:21.959Z,0.92
2022-08-02T12:14:17.081Z,0.39
2022-08-02T12:19:17.258Z,0.94
2022-08-02T12:24:15.230Z,0.88
2022-08-02T12:29:13.139Z,0.91
2022-08-02T12:34:12.357Z,0.96
2022-08-02T12:39:11.427Z,0.81
2022-08-02T12:44:10.488Z,0.86
2022-08-02T12:49:21.993Z,0.92
2022-08-02T12:54:11.525Z,0.38
2022-08-02T12:58:58.365Z,0.88
2022-08-02T13:04:17.805Z,0.76
2022-08-02T13:08:56.351Z,0.69
2022-08-02T13:13:54.186Z,0.47
2022-08-02T13:18:53.396Z,0.45
2022-08-02T13:24:00.752Z,0.7
2022-08-02T13:28:52.206Z,0.39
2022-08-02T13:33:52.392Z,0.41
2022-08-02T13:38:51.664Z,0.45
2022-08-02T13:44:11.642Z,0.46
2022-08-02T13:48:48.178Z,0.56
2022-08-02T13:53:46.784Z,0.4
2022-08-02T13:58:45.284Z,0.47
2022-08-02T14:00:14.248Z,0.39
2022-08-02T14:05:14.150Z,0.32
2022-08-02T14:10:14.190Z,0.39
2022-08-02T14:15:13.947Z,0.38
2022-08-02T14:20:32.134Z,0.49
2022-08-02T14:25:13.778Z,0.37
2022-08-02T14:30:10.549Z,0.27
2022-08-02T14:35:11.210Z,0.28
2022-08-02T14:40:05.027Z,0.28
2022-08-02T14:45:03.021Z,0.25
2022-08-02T14:50:03.562Z,0.27
2022-08-02T14:55:01.618Z,0.41
2022-08-02T14:59:23.149Z,0.34
2022-08-02T15:04:23.309Z,0.25
2022-08-02T15:09:19.852Z,0.26
2022-08-02T15:14:28.620Z,0.43
2022-08-02T15:19:21.614Z,0.44
2022-08-02T15:24:18.491Z,0.23
2022-08-02T15:29:17.713Z,0.22
2022-08-02T15:34:21.264Z,0.21
2022-08-02T15:39:15.574Z,0.18
2022-08-02T15:44:15.163Z,0.18
2022-08-02T15:49:13.417Z,0.16
2022-08-02T15:54:12.281Z,0.17
2022-08-02T15:59:03.406Z,0.15
2022-08-02T16:04:02.663Z,0.14
2022-08-02T16:09:02.433Z,0.14
2022-08-02T16:14:02.299Z,0.14
2022-08-02T16:19:57.564Z,0.13
2022-08-02T16:24:05.364Z,0.12
2022-08-02T16:28:59.757Z,0.12
2022-08-02T16:33:59.496Z,0.11
2022-08-02T16:38:56.579Z,0.11
2022-08-02T16:43:56.328Z,0.1
2022-08-02T16:48:56.075Z,0.09
2022-08-02T16:54:03.291Z,0.09
2022-08-02T16:58:55.552Z,0.08
2022-08-02T17:00:18.467Z,0.08
2022-08-02T17:05:17.047Z,0.07
2022-08-02T17:10:19.213Z,0.07
2022-08-02T17:16:27.738Z,0.07
2022-08-02T17:20:11.731Z,0.06
2022-08-02T17:25:13.590Z,0.06
2022-08-02T17:30:14.747Z,0.06
2022-08-02T23:03:53.586Z,0
2022-08-02T23:08:55.302Z,0
2022-08-02T23:13:51.478Z,0
2022-08-02T23:18:51.911Z,0
2022-08-02T23:23:50.953Z,0
2022-08-02T23:28:50.422Z,0
2022-08-02T23:34:07.259Z,0
2022-08-02T23:38:47.327Z,0
2022-08-02T23:44:16.645Z,0
2022-08-02T23:48:45.430Z,0
2022-08-02T23:53:45.591Z,0
2022-08-02T23:58:44.409Z,0
